Data for 06/12/2015

Time Sea-Level Adjusted Pressure Absolute Pressure Temperature Relative Humidity Dew Point   
(mb) (inHg) (mb) (inHg) (C) (F) (%) (C) (F)
00:05 1016 30 845 24.95 17.7 63.8 45 5.9 42.5
00:10 1016 30 845 24.95 17.4 63.3 46 5.9 42.6
00:15 1016 30 845 24.95 17.1 62.8 47 6 42.8
00:20 1016 30 845 24.95 16.9 62.5 48 5.8 42.5
00:25 1016 30 845 24.95 16.9 62.4 48 5.8 42.5
00:30 1016 30 845 24.95 16.8 62.3 47 5.5 41.9
00:35 1016 30 845 24.95 16.9 62.4 47 5.6 42.1
00:40 1016 30 845 24.95 16.8 62.3 47 5.4 41.7
00:45 1016 30 845 24.95 16.8 62.2 46 5.2 41.4
00:50 1016 30 845 24.95 16.9 62.5 45 5.2 41.3
00:55 1016 30 845 24.95 16.9 62.4 46 5.3 41.6
01:00 1016 30 845 24.95 16.7 62.1 47 5.5 41.9
01:05 1016 30 845 24.95 16.5 61.7 50 6.1 43
01:10 1016 30 845 24.95 16.5 61.6 51 6.4 43.6
01:15 1016 30 845 24.95 16.5 61.8 47 5.4 41.7
01:20 1016 30 845 24.95 16.4 61.5 48 5.5 41.9
01:25 1016 30 845 24.95 16.3 61.3 48 5.2 41.4
01:30 1016 30 845 24.95 16.1 61.1 48 5.2 41.3
01:35 1016 30 845 24.95 16.2 61.1 48 5.4 41.6
01:40 1016 30 845 24.95 16.2 61.1 53 6.8 44.2
01:45 1016 30 845 24.95 16 60.9 48 5.2 41.4
01:50 1016 30 845 24.95 15.8 60.5 49 5.2 41.3
01:55 1016 30 845 24.95 15.7 60.2 50 5.3 41.6
02:00 1016 30 845 24.95 15.6 60.1 49 5.1 41.1
02:05 1016 30 845 24.95 15.7 60.2 48 4.9 40.8
02:10 1016 30 845 24.95 15.6 60.1 51 5.7 42.2
02:15 1016 30 845 24.95 15.5 59.9 49 5.1 41.1
02:20 1016 30 845 24.95 15.6 60.1 47 4.6 40.2
02:25 1016 30 845 24.95 15.6 60 49 5.1 41.2
02:30 1016 30 845 24.95 15.2 59.4 50 5.1 41.2
02:35 1016 30 845 24.95 15 58.9 50 4.8 40.6
02:40 1016 30 845 24.95 14.9 58.8 50 4.8 40.6
02:45 1016 30 845 24.95 14.9 58.7 50 4.6 40.4
02:50 1016 30 845 24.95 15.1 59.1 49 4.6 40.3
02:55 1016 30 845 24.95 15 58.9 49 4.6 40.2
03:00 1016 30 845 24.95 15 59 48 4.2 39.6
03:05 1016 30 845 24.95 15.1 59.1 48 4.3 39.7
03:10 1016 30 845 24.95 15 59.1 48 4.2 39.5
03:15 1016 30 845 24.95 14.8 58.7 49 4.2 39.6
03:20 1016 30 845 24.95 14.6 58.2 51 4.5 40.1
03:25 1016 30 845 24.95 14.4 57.9 52 4.7 40.5
03:30 1016 30 845 24.95 14.2 57.5 52 4.5 40.1
03:35 1016 30 845 24.95 14.1 57.4 51 4.3 39.7
03:40 1016 30 845 24.95 14.5 58 49 4 39.3
03:45 1016 30 845 24.95 14.4 58 51 4.4 40
03:50 1016 30 845 24.95 14.1 57.3 51 4.2 39.6
03:55 1016 30 845 24.95 14 57.1 51 4.2 39.6
04:00 1016 30 845 24.95 13.9 57 53 4.5 40.1
04:05 1016 30 845 24.95 13.4 56.2 54 4.4 39.9
04:10 1016 30 845 24.95 13.2 55.7 54 4.2 39.6
04:15 1016 30 845 24.95 13.2 55.8 55 4.3 39.8
04:20 1016 30 845 24.95 13.2 55.7 54 4.3 39.7
04:25 1016 30 845 24.95 13.2 55.7 54 4.2 39.5
04:30 1016 30 845 24.95 13.2 55.8 55 4.4 39.8
04:35 1016 30 845 24.95 13 55.5 55 4.3 39.7
04:40 1016 30 845 24.95 13.1 55.5 54 4 39.2
04:45 1016 30 845 24.95 13.1 55.5 54 3.9 39
04:50 1016 30 845 24.95 13.2 55.8 53 4 39.3
04:55 1016 30 845 24.95 13.3 55.9 53 4 39.2
05:00 1016 30 845 24.95 13.1 55.5 56 4.5 40.2
05:05 1016 30 845 24.95 12.6 54.7 57 4.3 39.8
05:10 1016 30 845 24.95 12.6 54.6 56 4.1 39.4
05:15 1016 30 845 24.95 12.6 54.6 56 4.2 39.5
05:20 1016 30 845 24.95 12.8 55.1 56 4.2 39.6
05:25 1016 30 845 24.95 13 55.4 55 4.3 39.8
05:30 1016 30 846 24.98 13.3 55.9 53 4 39.2
05:35 1016 30 846 24.98 13.7 56.6 52 4.1 39.4
05:40 1016 30 846 24.98 13.8 56.8 52 4.3 39.7
05:45 1016 30 846 24.98 13.9 57.1 54 4.8 40.6
05:50 1017 30.03 846 24.98 14 57.1 53 4.5 40.2
05:55 1017 30.03 846 24.98 14 57.3 53 4.8 40.7
06:00 1017 30.03 846 24.98 14.1 57.4 52 4.6 40.3
06:05 1016 30 846 24.98 14.4 57.8 50 4.2 39.6
06:10 1016 30 846 24.98 14.8 58.6 50 4.6 40.3
06:15 1017 30.03 846 24.98 15.2 59.3 49 4.7 40.4
06:20 1017 30.03 846 24.98 15.5 60 48 4.6 40.3
06:25 1017 30.03 846 24.98 15.9 60.7 47 4.9 40.7
06:30 1017 30.03 846 24.98 16.4 61.5 48 5.3 41.6
06:35 1017 30.03 846 24.98 16.5 61.6 46 4.9 40.8
06:40 1017 30.03 846 24.98 16.6 61.8 45 4.7 40.5
06:45 1017 30.03 846 24.98 17.1 62.8 44 4.8 40.6
06:50 1017 30.03 846 24.98 17.4 63.3 43 4.9 40.9
06:55 1017 30.03 846 24.98 17.6 63.7 45 5.6 42.1
07:00 1017 30.03 846 24.98 17.8 64 42 5 40.9
07:05 1017 30.03 846 24.98 18.1 64.6 40 4.4 40
07:10 1017 30.03 846 24.98 18.6 65.4 39 4.4 39.8
07:15 1017 30.03 846 24.98 18.8 65.8 36 3.5 38.4
07:20 1017 30.03 846 24.98 19.1 66.4 29 0.9 33.7
07:25 1017 30.03 846 24.98 19.8 67.7 31 2.4 36.4
07:30 1016 30 846 24.98 19.6 67.3 32 2.6 36.7
07:35 1016 30 846 24.98 20.3 68.5 31 2.6 36.7
07:40 1016 30 846 24.98 20 68 30 1.9 35.4
07:45 1016 30 846 24.98 19.8 67.6 29 1.5 34.7
07:50 1016 30 846 24.98 19.6 67.2 30 1.5 34.7
07:55 1016 30 846 24.98 19.7 67.5 30 1.9 35.4
08:00 1016 30 846 24.98 19.7 67.4 30 1.7 35
08:05 1016 30 846 24.98 20.4 68.7 29 2.1 35.8
08:10 1016 30 846 24.98 20.3 68.6 31 2.6 36.7
08:15 1016 30 846 24.98 20.5 68.8 28 1.6 34.8
08:20 1016 30 846 24.98 20.6 69 29 2.1 35.8
08:25 1016 30 846 24.98 20.6 69.1 28 1.7 35
08:30 1016 30 845 24.95 20.3 68.6 29 1.8 35.2
08:35 1016 30 845 24.95 20.7 69.3 28 1.7 35
08:40 1016 30 845 24.95 21.4 70.5 28 2.5 36.5
08:45 1016 30 845 24.95 21.7 71.1 28 2.5 36.5
08:50 1016 30 845 24.95 22 71.5 27 2.4 36.3
08:55 1016 30 845 24.95 22.3 72.2 25 1.4 34.6
09:00 1016 30 845 24.95 22.3 72.1 25 1.6 34.8
09:05 1016 30 845 24.95 22.7 72.9 24 1.4 34.5
09:10 1016 30 845 24.95 22.6 72.7 24 1.4 34.5
09:15 1016 30 845 24.95 22.5 72.5 25 1.9 35.3
09:20 1016 30 845 24.95 21.9 71.3 25 1.2 34.1
09:25 1016 30 845 24.95 22.3 72.1 25 1.6 34.9
09:30 1016 30 845 24.95 22.9 73.3 25 2.2 36
09:35 1016 30 845 24.95 22.7 72.9 26 2.6 36.6
09:40 1016 30 845 24.95 21.8 71.2 26 1.4 34.5
09:45 1016 30 845 24.95 22.2 72 26 2 35.5
09:50 1015 29.97 845 24.95 23.1 73.6 26 2.5 36.6
09:55 1015 29.97 845 24.95 23.5 74.4 25 2.4 36.2
10:00 1015 29.97 845 24.95 23.6 74.6 24 2.3 36.2
10:05 1015 29.97 844 24.92 24 75.3 24 2.7 36.8
10:10 1015 29.97 844 24.92 23.9 75 24 2.3 36.1
10:15 1015 29.97 844 24.92 24.3 75.8 24 2.7 36.8
10:20 1015 29.97 844 24.92 24.5 76.2 22 1.9 35.4
10:25 1015 29.97 844 24.92 24.7 76.5 23 2.2 36
10:30 1015 29.97 844 24.92 24.6 76.3 23 2.6 36.7
10:35 1015 29.97 844 24.92 23.6 74.4 26 3 37.3
10:40 1015 29.97 844 24.92 23.9 74.9 25 2.6 36.7
10:45 1015 29.97 844 24.92 24.2 75.6 21 1 33.8
10:50 1015 29.97 844 24.92 24.5 76.1 20 0.3 32.6
10:55 1015 29.97 844 24.92 24.9 76.9 19 0.2 32.3
11:00 1015 29.97 844 24.92 25.4 77.7 21 1.7 35
11:05 1015 29.97 844 24.92 25.2 77.4 20 0.9 33.6
11:10 1015 29.97 844 24.92 24.9 76.9 21 1.1 34.1
11:15 1015 29.97 844 24.92 25.1 77.2 20 0.8 33.4
11:20 1015 29.97 844 24.92 25.3 77.5 20 1.1 34
11:25 1014 29.94 844 24.92 25.1 77.2 21 1.4 34.4
11:30 1014 29.94 844 24.92 24.6 76.2 22 1.4 34.6
11:35 1014 29.94 844 24.92 25.2 77.4 21 1.9 35.4
11:40 1014 29.94 843 24.89 25.4 77.7 22 2.1 35.8
11:45 1014 29.94 843 24.89 25.7 78.3 20 1.4 34.5
11:50 1014 29.94 843 24.89 25.9 78.6 21 2.3 36.1
11:55 1014 29.94 843 24.89 25.6 78.1 22 2.6 36.6
12:00 1014 29.94 843 24.89 26.1 79 21 2.6 36.6
12:05 1014 29.94 843 24.89 26.3 79.3 21 2.3 36.2
12:10 1014 29.94 843 24.89 26.4 79.6 22 3 37.4
12:15 1014 29.94 843 24.89 26.1 79 22 2.7 36.9
12:20 1014 29.94 843 24.89 26.5 79.7 21 2.7 36.8
12:25 1014 29.94 843 24.89 26.3 79.3 22 2.9 37.3
12:30 1014 29.94 843 24.89 26.5 79.7 21 2.4 36.3
12:35 1014 29.94 843 24.89 26.2 79.2 21 2.3 36.2
12:40 1013 29.91 843 24.89 25.9 78.7 21 2.1 35.8
12:45 1013 29.91 843 24.89 26.3 79.4 22 2.9 37.3
12:50 1013 29.91 843 24.89 26.6 80 21 3 37.5
12:55 1013 29.91 842 24.86 26.9 80.3 22 3.4 38.1
13:00 1013 29.91 843 24.89 26.9 80.5 22 3.6 38.4
13:05 1013 29.91 842 24.86 26.4 79.6 23 3.7 38.6
13:10 1013 29.91 842 24.86 26.1 79 22 3.2 37.8
13:15 1013 29.91 842 24.86 26.3 79.3 22 3.1 37.6
13:20 1013 29.91 842 24.86 26.4 79.5 22 3.2 37.8
13:25 1013 29.91 842 24.86 26.7 80.1 20 2.1 35.8
13:30 1013 29.91 842 24.86 26.6 79.8 20 2 35.7
13:35 1013 29.91 842 24.86 26 78.8 22 2.7 36.8
13:40 1013 29.91 842 24.86 26 78.8 22 2.6 36.7
13:45 1013 29.91 842 24.86 26.3 79.3 22 2.9 37.3
13:50 1013 29.91 842 24.86 26.1 79 22 3 37.3
13:55 1013 29.91 842 24.86 25.7 78.2 21 2.3 36.1
14:00 1013 29.91 842 24.86 25.8 78.5 21 1.8 35.3
14:05 1013 29.91 842 24.86 26.6 79.9 21 2.5 36.6
14:10 1013 29.91 842 24.86 27.3 81.1 20 2.9 37.2
14:15 1013 29.91 842 24.86 27.3 81.1 19 2.1 35.8
14:20 1013 29.91 842 24.86 27.4 81.4 18 1.2 34.2
14:25 1013 29.91 842 24.86 27.7 81.8 18 1.3 34.3
14:30 1013 29.91 842 24.86 28.1 82.5 17 0.9 33.7
14:35 1013 29.91 842 24.86 28.4 83.1 15 -0 32
14:40 1013 29.91 842 24.86 28 82.3 17 0.9 33.6
14:45 1013 29.91 842 24.86 27.8 82 16 -0.4 31.3
14:50 1013 29.91 842 24.86 28 82.3 16 0.1 32.1
14:55 1012 29.88 842 24.86 27.8 82.1 16 0.4 32.7
15:00 1012 29.88 842 24.86 27.7 81.9 17 0.5 32.9
15:05 1012 29.88 842 24.86 27.9 82.2 17 0.8 33.4
15:10 1012 29.88 842 24.86 27.9 82.3 16 0 32
15:15 1012 29.88 841 24.83 27.6 81.6 17 0.6 33.2
15:20 1012 29.88 841 24.83 27.8 82 16 -0.2 31.6
15:25 1012 29.88 841 24.83 27.8 82 16 0.3 32.6
15:30 1012 29.88 841 24.83 27.8 82 16 0.1 32.2
15:35 1012 29.88 841 24.83 27.8 82.1 16 -0.1 31.9
15:40 1012 29.88 841 24.83 28.1 82.6 15 -0.4 31.2
15:45 1012 29.88 841 24.83 28.1 82.6 15 -0.6 30.9
15:50 1012 29.88 841 24.83 28.3 83 15 -0.8 30.6
15:55 1012 29.88 841 24.83 28.3 82.9 15 -0.7 30.7
16:00 1012 29.88 841 24.83 28.1 82.6 14 -2 28.5
16:05 1012 29.88 841 24.83 28 82.5 15 -0.9 30.3
16:10 1012 29.88 841 24.83 28.1 82.6 16 0.6 33.1
16:15 1012 29.88 841 24.83 28.1 82.6 14 -1.1 30
16:20 1012 29.88 841 24.83 27.9 82.1 15 -1 30.2
16:25 1012 29.88 841 24.83 27.7 81.9 16 0.3 32.6
16:30 1012 29.88 841 24.83 27.4 81.3 17 0.5 32.8
16:35 1012 29.88 841 24.83 27.1 80.9 18 0.8 33.4
16:40 1012 29.88 841 24.83 27.1 80.7 18 1.2 34.2
16:45 1012 29.88 841 24.83 27 80.5 18 1.1 34
16:50 1012 29.88 841 24.83 27.1 80.7 18 0.9 33.6
16:55 1012 29.88 841 24.83 27 80.6 18 1.1 34
17:00 1012 29.88 841 24.83 27 80.5 18 0.7 33.2
17:05 1012 29.88 841 24.83 26.9 80.4 18 0.7 33.2
17:10 1012 29.88 841 24.83 26.9 80.3 18 0.8 33.4
17:15 1012 29.88 841 24.83 26.8 80.2 18 0.9 33.7
17:20 1012 29.88 841 24.83 26.8 80.2 18 0.8 33.4
17:25 1012 29.88 841 24.83 26.6 79.9 18 0.2 32.4
17:30 1012 29.88 841 24.83 26.7 80 18 0.9 33.6
17:35 1012 29.88 841 24.83 26.7 80 17 0.2 32.4
17:40 1012 29.88 841 24.83 26.3 79.3 18 -0 32
17:45 1012 29.88 841 24.83 26.4 79.4 18 0.3 32.5
17:50 1012 29.88 841 24.83 26.2 79.2 18 0.5 32.9
17:55 1012 29.88 841 24.83 25.9 78.6 18 -0 32
18:00 1012 29.88 841 24.83 25.6 78 18 -0 31.9
18:05 1012 29.88 841 24.83 25.2 77.3 18 -0.5 31.2
18:10 1012 29.88 841 24.83 25.1 77.2 18 -0.6 31
18:15 1012 29.88 841 24.83 25 77 18 -0.7 30.7
18:20 1012 29.88 841 24.83 25.1 77.1 17 -1.1 30
18:25 1012 29.88 841 24.83 24.9 76.9 15 -3 26.5
18:30 1012 29.88 841 24.83 24.5 76.2 17 -2.1 28.3
18:35 1012 29.88 842 24.86 24.4 76 17 -1.9 28.5
18:40 1012 29.88 842 24.86 24.4 76 17 -1.7 28.9
18:45 1012 29.88 842 24.86 24.4 76 17 -2 28.3
18:50 1012 29.88 842 24.86 24.5 76.1 16 -2.4 27.6
18:55 1013 29.91 842 24.86 24.4 75.9 16 -2.8 27
19:00 1013 29.91 842 24.86 24.3 75.7 15 -3.4 25.8
19:05 1013 29.91 842 24.86 24.3 75.7 14 -4.5 23.8
19:10 1013 29.91 842 24.86 24.3 75.8 14 -4.3 24.3
19:15 1013 29.91 842 24.86 24.3 75.7 15 -3.5 25.7
19:20 1013 29.91 842 24.86 24.1 75.4 15 -3.9 25
19:25 1013 29.91 842 24.86 24 75.2 15 -3.8 25.1
19:30 1013 29.91 842 24.86 23.9 74.9 15 -3.8 25.2
19:35 1013 29.91 842 24.86 23.8 74.8 15 -4.2 24.4
19:40 1013 29.91 842 24.86 23.7 74.7 15 -4.2 24.5
19:45 1013 29.91 842 24.86 23.7 74.7 16 -3.6 25.5
19:50 1013 29.91 842 24.86 23.6 74.5 15 -4.3 24.2
19:55 1013 29.91 842 24.86 23.3 74 16 -3.4 25.9
20:00 1013 29.91 843 24.89 23.1 73.5 17 -2.8 26.9
20:05 1013 29.91 843 24.89 22.9 73.1 18 -2.3 27.8
20:10 1013 29.91 843 24.89 22.6 72.6 19 -2.4 27.8
20:15 1014 29.94 843 24.89 22.3 72.1 20 -1.7 29
20:20 1014 29.94 843 24.89 22 71.6 20 -1.8 28.7
20:25 1014 29.94 843 24.89 21.8 71.2 20 -2 28.4
20:30 1014 29.94 843 24.89 21.6 70.8 20 -2 28.4
20:35 1014 29.94 843 24.89 21.4 70.4 21 -2 28.4
20:40 1014 29.94 843 24.89 21.2 70.1 20 -2.3 27.9
20:45 1014 29.94 843 24.89 21.1 70 23 -0.9 30.4
20:50 1014 29.94 843 24.89 20.8 69.4 24 -0.6 31
20:55 1014 29.94 843 24.89 20.6 69 25 -0.2 31.7
21:00 1014 29.94 843 24.89 20.3 68.5 23 -1.2 29.8
21:05 1014 29.94 843 24.89 20 68 24 -1.1 30.1
21:10 1014 29.94 844 24.92 19.7 67.4 25 -0.7 30.7
21:15 1014 29.94 844 24.92 19.4 67 26 -0.4 31.4
21:20 1014 29.94 844 24.92 19 66.2 32 2.1 35.9
21:25 1014 29.94 844 24.92 18.1 64.6 33 1.9 35.4
21:30 1015 29.97 844 24.92 17.9 64.2 34 1.9 35.5
21:35 1015 29.97 844 24.92 17.6 63.7 34 1.7 35
21:40 1015 29.97 844 24.92 17.4 63.3 35 1.9 35.4
21:45 1015 29.97 844 24.92 17.2 62.9 36 2 35.7
21:50 1015 29.97 844 24.92 17.2 63 36 2.1 35.8
21:55 1015 29.97 844 24.92 17.3 63.1 34 1.2 34.2
22:00 1015 29.97 844 24.92 17.1 62.8 34 1.3 34.3
22:05 1015 29.97 844 24.92 17.1 62.7 34 1.2 34.1
22:10 1015 29.97 844 24.92 17 62.7 35 1.8 35.2
22:15 1015 29.97 844 24.92 17 62.6 33 0.6 33.1
22:20 1015 29.97 844 24.92 17 62.7 33 0.8 33.4
22:25 1015 29.97 844 24.92 17.2 63 30 -0.5 31.1
22:30 1015 29.97 844 24.92 17.5 63.4 29 -0.4 31.2
22:35 1015 29.97 844 24.92 17.6 63.6 28 -1.2 29.9
22:40 1015 29.97 844 24.92 17.6 63.8 27 -1.5 29.3
22:45 1015 29.97 844 24.92 17.7 63.9 27 -1.2 29.9
22:50 1015 29.97 844 24.92 17.7 63.9 25 -2.3 27.9
22:55 1015 29.97 844 24.92 17.7 63.9 26 -1.8 28.8
23:00 1015 29.97 844 24.92 17.4 63.4 33 1.2 34.2
23:05 1015 29.97 844 24.92 16.3 61.4 35 1 33.9
23:10 1015 29.97 844 24.92 15.7 60.2 33 -0.5 31.1
23:15 1015 29.97 844 24.92 15.6 60.1 34 -0.2 31.6
23:20 1015 29.97 844 24.92 15.5 59.9 30 -2 28.4
23:25 1015 29.97 844 24.92 15.7 60.3 30 -1.5 29.3
23:30 1015 29.97 844 24.92 15.6 60 37 1.1 34
23:35 1015 29.97 844 24.92 14.9 58.8 33 -1 30.2
23:40 1015 29.97 844 24.92 14.9 58.9 32 -1.5 29.4
23:45 1015 29.97 844 24.92 14.8 58.6 32 -1.6 29.2
23:50 1015 29.97 844 24.92 14.7 58.5 29 -3 26.6
23:55 1015 29.97 844 24.92 14.9 58.8 29 -2.8 27
24:00 1015 29.97 844 24.92 14.8 58.7 29 -2.8 27